PWSweather.com
Personal Weather Stations
Station Observations
IMAZOWIE6
WarszawaPL

WarszawaPL

Lat: 52.27957, Lon: 21.05489

Elevation: 100

Station Type: WS1080

http://stacjapogody.waw.pl/

High Low Average
Temperature 24.6°F-4.1°C 11.3°F-11.5°C 18.2°F-7.7°C
Dew Point -25.0°F-31.7°C -171.3°F-112.9°C -110.8°F-79.3°C
Winds 4.0 mph 6.4 kmh Calm Calm 1.0 mph N1.6 kmh N
Wind Gusts 10.2 mph16.4 kmh 0.6 mph1.0 kmh 4.0 mph6.4 kmh
Humidity 15% 10% 14%
Pressure 29.77 in1008.1 mb 29.17 in987.8 mb -
Precipitation 0.00 in0.0 mm - -
Hour Temp Dew Point Humidity Winds Wind Gusts Pressure Precip Precip Rate Daily Precip Total
12:05 AM 17.8°F-7.9°C -26.2°F-32.3°C 12% 2.8 mph N4.5 kmh N 5.4 mph8.7 kmh 29.77 in1008.1 mb 0.00 in0.0 mm 0.00 in0.0 mm 0.00 in0.0 mm
12:20 AM 17.4°F-8.1°C -26.5°F-32.5°C 12% Calm Calm 1.4 mph2.3 kmh 29.77 in1008.1 mb 0.00 in0.0 mm 0.00 in0.0 mm 0.00 in0.0 mm
12:35 AM 17.1°F-8.3°C -26.7°F-32.6°C 12% 0.6 mph N1.0 kmh N 2.8 mph4.5 kmh 29.76 in1007.8 mb 0.00 in0.0 mm 0.00 in0.0 mm 0.00 in0.0 mm
12:50 AM 17.1°F-8.3°C -26.7°F-32.6°C 12% 0.6 mph N1.0 kmh N 2.0 mph3.2 kmh 29.76 in1007.8 mb 0.00 in0.0 mm 0.00 in0.0 mm 0.00 in0.0 mm
01:05 AM 16.7°F-8.5°C -27.0°F-32.8°C 12% 1.4 mph N2.3 kmh N 3.4 mph5.5 kmh 29.76 in1007.8 mb 0.00 in0.0 mm 0.00 in0.0 mm 0.00 in0.0 mm
01:20 AM 16.3°F-8.7°C -27.3°F-32.9°C 12% 1.4 mph N2.3 kmh N 3.4 mph5.5 kmh 29.76 in1007.8 mb 0.00 in0.0 mm 0.00 in0.0 mm 0.00 in0.0 mm
01:35 AM 16.2°F-8.8°C -26.0°F-32.2°C 13% Calm Calm 1.4 mph2.3 kmh 29.76 in1007.8 mb 0.00 in0.0 mm 0.00 in0.0 mm 0.00 in0.0 mm
01:50 AM 16.0°F-8.9°C -26.2°F-32.3°C 13% 0.6 mph N1.0 kmh N 3.4 mph5.5 kmh 29.75 in1007.5 mb 0.00 in0.0 mm 0.00 in0.0 mm 0.00 in0.0 mm
02:05 AM 15.6°F-9.1°C -26.4°F-32.4°C 13% Calm Calm 1.4 mph2.3 kmh 29.75 in1007.5 mb 0.00 in0.0 mm 0.00 in0.0 mm 0.00 in0.0 mm
02:20 AM 15.4°F-9.2°C -26.6°F-32.6°C 13% 1.4 mph N2.3 kmh N 2.8 mph4.5 kmh 29.76 in1007.8 mb 0.00 in0.0 mm 0.00 in0.0 mm 0.00 in0.0 mm
02:35 AM 15.1°F-9.4°C -26.9°F-32.7°C 13% 0.6 mph N1.0 kmh N 2.8 mph4.5 kmh 29.76 in1007.8 mb 0.00 in0.0 mm 0.00 in0.0 mm 0.00 in0.0 mm
02:50 AM 14.7°F-9.6°C -25.8°F-32.1°C 14% 1.4 mph N2.3 kmh N 2.8 mph4.5 kmh 29.76 in1007.8 mb 0.00 in0.0 mm 0.00 in0.0 mm 0.00 in0.0 mm
03:05 AM 14.5°F-9.7°C -26.0°F-32.2°C 14% Calm Calm 0.6 mph1.0 kmh 29.75 in1007.5 mb 0.00 in0.0 mm 0.00 in0.0 mm 0.00 in0.0 mm
03:20 AM 14.4°F-9.8°C -26.1°F-32.3°C 14% 0.6 mph N1.0 kmh N 1.4 mph2.3 kmh 29.75 in1007.5 mb 0.00 in0.0 mm 0.00 in0.0 mm 0.00 in0.0 mm
03:35 AM 14.2°F-9.9°C -25.0°F-31.7°C 15% Calm Calm 0.6 mph1.0 kmh 29.75 in1007.5 mb 0.00 in0.0 mm 0.00 in0.0 mm 0.00 in0.0 mm
03:50 AM 14.0°F-10.0°C -26.4°F-32.4°C 14% 1.4 mph N2.3 kmh N 3.4 mph5.5 kmh 29.76 in1007.8 mb 0.00 in0.0 mm 0.00 in0.0 mm 0.00 in0.0 mm
04:05 AM 13.6°F-10.2°C -25.4°F-31.9°C 15% 0.6 mph N1.0 kmh N 2.8 mph4.5 kmh 29.77 in1008.1 mb 0.00 in0.0 mm 0.00 in0.0 mm 0.00 in0.0 mm
04:20 AM 13.5°F-10.3°C -25.6°F-32.0°C 15% 0.6 mph N1.0 kmh N 3.4 mph5.5 kmh 29.76 in1007.8 mb 0.00 in0.0 mm 0.00 in0.0 mm 0.00 in0.0 mm
04:35 AM 13.1°F-10.5°C -25.9°F-32.2°C 15% Calm Calm 1.4 mph2.3 kmh 29.76 in1007.8 mb 0.00 in0.0 mm 0.00 in0.0 mm 0.00 in0.0 mm
04:50 AM 12.9°F-10.6°C -26.0°F-32.2°C 15% Calm Calm 1.4 mph2.3 kmh 29.76 in1007.8 mb 0.00 in0.0 mm 0.00 in0.0 mm 0.00 in0.0 mm
05:05 AM 12.7°F-10.7°C -26.2°F-32.3°C 15% 0.6 mph N1.0 kmh N 3.4 mph5.5 kmh 29.75 in1007.5 mb 0.00 in0.0 mm 0.00 in0.0 mm 0.00 in0.0 mm
05:20 AM 12.7°F-10.7°C -26.2°F-32.3°C 15% 1.4 mph N2.3 kmh N 3.4 mph5.5 kmh 29.75 in1007.5 mb 0.00 in0.0 mm 0.00 in0.0 mm 0.00 in0.0 mm
05:35 AM 12.7°F-10.7°C -27.4°F-33.0°C 14% 1.4 mph N2.3 kmh N 2.0 mph3.2 kmh 29.74 in1007.1 mb 0.00 in0.0 mm 0.00 in0.0 mm 0.00 in0.0 mm
05:50 AM 12.7°F-10.7°C -27.4°F-33.0°C 14% 1.4 mph N2.3 kmh N 3.4 mph5.5 kmh 29.74 in1007.1 mb 0.00 in0.0 mm 0.00 in0.0 mm 0.00 in0.0 mm
06:05 AM 12.6°F-10.8°C -27.6°F-33.1°C 14% 0.6 mph N1.0 kmh N 2.0 mph3.2 kmh 29.74 in1007.1 mb 0.00 in0.0 mm 0.00 in0.0 mm 0.00 in0.0 mm
06:20 AM 12.4°F-10.9°C -27.7°F-33.2°C 14% 1.4 mph N2.3 kmh N 4.8 mph7.7 kmh 29.73 in1006.8 mb 0.00 in0.0 mm 0.00 in0.0 mm 0.00 in0.0 mm
06:35 AM 12.2°F-11.0°C -26.6°F-32.6°C 15% Calm Calm 1.4 mph2.3 kmh 29.73 in1006.8 mb 0.00 in0.0 mm 0.00 in0.0 mm 0.00 in0.0 mm
06:50 AM 12.0°F-11.1°C -28.0°F-33.3°C 14% 1.4 mph N2.3 kmh N 4.0 mph6.4 kmh 29.72 in1006.4 mb 0.00 in0.0 mm 0.00 in0.0 mm 0.00 in0.0 mm
07:05 AM 11.7°F-11.3°C -28.3°F-33.5°C 14% Calm Calm 1.4 mph2.3 kmh 29.72 in1006.4 mb 0.00 in0.0 mm 0.00 in0.0 mm 0.00 in0.0 mm
07:20 AM 11.3°F-11.5°C -28.6°F-33.7°C 14% 0.6 mph N1.0 kmh N 2.0 mph3.2 kmh 29.71 in1006.1 mb 0.00 in0.0 mm 0.00 in0.0 mm 0.00 in0.0 mm
07:35 AM 11.3°F-11.5°C -28.6°F-33.7°C 14% 0.6 mph N1.0 kmh N 2.8 mph4.5 kmh 29.71 in1006.1 mb 0.00 in0.0 mm 0.00 in0.0 mm 0.00 in0.0 mm
07:50 AM 11.3°F-11.5°C -27.3°F-32.9°C 15% 0.6 mph N1.0 kmh N 2.8 mph4.5 kmh 29.71 in1006.1 mb 0.00 in0.0 mm 0.00 in0.0 mm 0.00 in0.0 mm
08:05 AM 11.3°F-11.5°C -27.3°F-32.9°C 15% 0.6 mph N1.0 kmh N 2.8 mph4.5 kmh 29.71 in1006.1 mb 0.00 in0.0 mm 0.00 in0.0 mm 0.00 in0.0 mm
08:20 AM 11.8°F-11.2°C -26.9°F-32.7°C 15% 1.4 mph N2.3 kmh N 4.8 mph7.7 kmh 29.71 in1006.1 mb 0.00 in0.0 mm 0.00 in0.0 mm 0.00 in0.0 mm
08:35 AM 12.4°F-10.9°C -26.5°F-32.5°C 15% 0.6 mph N1.0 kmh N 2.8 mph4.5 kmh 29.70 in1005.8 mb 0.00 in0.0 mm 0.00 in0.0 mm 0.00 in0.0 mm
08:50 AM 12.7°F-10.7°C -27.4°F-33.0°C 14% 1.4 mph N2.3 kmh N 3.4 mph5.5 kmh 29.70 in1005.8 mb 0.00 in0.0 mm 0.00 in0.0 mm 0.00 in0.0 mm
09:05 AM 13.8°F-10.1°C -27.9°F-33.3°C 13% 0.6 mph N1.0 kmh N 2.0 mph3.2 kmh 29.69 in1005.4 mb 0.00 in0.0 mm 0.00 in0.0 mm 0.00 in0.0 mm
09:20 AM 14.0°F-10.0°C -29.2°F-34.0°C 12% 0.6 mph N1.0 kmh N 2.8 mph4.5 kmh 29.69 in1005.4 mb 0.00 in0.0 mm 0.00 in0.0 mm 0.00 in0.0 mm
09:35 AM 14.9°F-9.5°C -30.0°F-34.4°C 11% 1.4 mph N2.3 kmh N 2.8 mph4.5 kmh 29.69 in1005.4 mb 0.00 in0.0 mm 0.00 in0.0 mm 0.00 in0.0 mm
09:50 AM 16.2°F-8.8°C -30.7°F-34.8°C 10% 0.6 mph N1.0 kmh N 2.8 mph4.5 kmh 29.68 in1005.1 mb 0.00 in0.0 mm 0.00 in0.0 mm 0.00 in0.0 mm
10:05 AM 15.8°F-9.0°C -171.2°F-112.9°C - 0.6 mph N1.0 kmh N 2.0 mph3.2 kmh 29.67 in1004.7 mb 0.00 in0.0 mm 0.00 in0.0 mm 0.00 in0.0 mm
10:20 AM 14.9°F-9.5°C -171.3°F-112.9°C - 0.6 mph N1.0 kmh N 2.8 mph4.5 kmh 29.66 in1004.4 mb 0.00 in0.0 mm 0.00 in0.0 mm 0.00 in0.0 mm
10:35 AM 15.3°F-9.3°C -171.3°F-112.9°C - 1.4 mph N2.3 kmh N 2.0 mph3.2 kmh 29.65 in1004.1 mb 0.00 in0.0 mm 0.00 in0.0 mm 0.00 in0.0 mm
10:50 AM 15.8°F-9.0°C -171.2°F-112.9°C - 0.6 mph N1.0 kmh N 2.0 mph3.2 kmh 29.64 in1003.7 mb 0.00 in0.0 mm 0.00 in0.0 mm 0.00 in0.0 mm
11:05 AM 16.5°F-8.6°C -171.1°F-112.8°C - 1.4 mph N2.3 kmh N 3.4 mph5.5 kmh 29.63 in1003.4 mb 0.00 in0.0 mm 0.00 in0.0 mm 0.00 in0.0 mm
11:20 AM 17.1°F-8.3°C -171.1°F-112.8°C - 1.4 mph N2.3 kmh N 3.4 mph5.5 kmh 29.62 in1003.0 mb 0.00 in0.0 mm 0.00 in0.0 mm 0.00 in0.0 mm
11:35 AM 17.8°F-7.9°C -171.0°F-112.8°C - 1.4 mph N2.3 kmh N 4.0 mph6.4 kmh 29.62 in1003.0 mb 0.00 in0.0 mm 0.00 in0.0 mm 0.00 in0.0 mm
11:50 AM 18.5°F-7.5°C -171.0°F-112.8°C - 1.4 mph N2.3 kmh N 4.8 mph7.7 kmh 29.62 in1003.0 mb 0.00 in0.0 mm 0.00 in0.0 mm 0.00 in0.0 mm
12:05 PM 19.6°F-6.9°C -170.8°F-112.7°C - 1.4 mph N2.3 kmh N 4.0 mph6.4 kmh 29.60 in1002.4 mb 0.00 in0.0 mm 0.00 in0.0 mm 0.00 in0.0 mm
12:20 PM 21.0°F-6.1°C -170.7°F-112.6°C - 0.6 mph N1.0 kmh N 2.8 mph4.5 kmh 29.59 in1002.0 mb 0.00 in0.0 mm 0.00 in0.0 mm 0.00 in0.0 mm
12:35 PM 22.5°F-5.3°C -170.6°F-112.6°C - 0.6 mph N1.0 kmh N 2.0 mph3.2 kmh 29.58 in1001.7 mb 0.00 in0.0 mm 0.00 in0.0 mm 0.00 in0.0 mm
12:50 PM 23.2°F-4.9°C -170.5°F-112.5°C - 0.6 mph N1.0 kmh N 2.8 mph4.5 kmh 29.57 in1001.4 mb 0.00 in0.0 mm 0.00 in0.0 mm 0.00 in0.0 mm
01:05 PM 23.5°F-4.7°C -170.4°F-112.4°C - 0.6 mph N1.0 kmh N 4.8 mph7.7 kmh 29.57 in1001.4 mb 0.00 in0.0 mm 0.00 in0.0 mm 0.00 in0.0 mm
01:20 PM 23.9°F-4.5°C -170.4°F-112.4°C - 0.6 mph N1.0 kmh N 2.8 mph4.5 kmh 29.56 in1001.0 mb 0.00 in0.0 mm 0.00 in0.0 mm 0.00 in0.0 mm
01:35 PM 24.1°F-4.4°C -170.4°F-112.4°C - 0.6 mph N1.0 kmh N 4.8 mph7.7 kmh 29.55 in1000.7 mb 0.00 in0.0 mm 0.00 in0.0 mm 0.00 in0.0 mm
01:50 PM 24.4°F-4.2°C -170.4°F-112.4°C - 0.6 mph N1.0 kmh N 2.8 mph4.5 kmh 29.55 in1000.7 mb 0.00 in0.0 mm 0.00 in0.0 mm 0.00 in0.0 mm
02:05 PM 24.4°F-4.2°C -170.4°F-112.4°C - 2.8 mph N4.5 kmh N 4.8 mph7.7 kmh 29.53 in1000.0 mb 0.00 in0.0 mm 0.00 in0.0 mm 0.00 in0.0 mm
02:20 PM 24.4°F-4.2°C -170.4°F-112.4°C - 0.6 mph N1.0 kmh N 2.8 mph4.5 kmh 29.53 in1000.0 mb 0.00 in0.0 mm 0.00 in0.0 mm 0.00 in0.0 mm
02:35 PM 24.3°F-4.3°C -170.4°F-112.4°C - 2.0 mph N3.2 kmh N 5.4 mph8.7 kmh 29.52 in999.7 mb 0.00 in0.0 mm 0.00 in0.0 mm 0.00 in0.0 mm
02:50 PM 24.4°F-4.2°C -170.4°F-112.4°C - 1.4 mph N2.3 kmh N 5.4 mph8.7 kmh 29.51 in999.3 mb 0.00 in0.0 mm 0.00 in0.0 mm 0.00 in0.0 mm
03:05 PM 24.4°F-4.2°C -170.4°F-112.4°C - 1.4 mph N2.3 kmh N 2.8 mph4.5 kmh 29.50 in999.0 mb 0.00 in0.0 mm 0.00 in0.0 mm 0.00 in0.0 mm
03:20 PM 24.4°F-4.2°C -170.4°F-112.4°C - 1.4 mph N2.3 kmh N 4.8 mph7.7 kmh 29.49 in998.6 mb 0.00 in0.0 mm 0.00 in0.0 mm 0.00 in0.0 mm
03:35 PM 24.4°F-4.2°C -170.4°F-112.4°C - 2.0 mph N3.2 kmh N 4.0 mph6.4 kmh 29.48 in998.3 mb 0.00 in0.0 mm 0.00 in0.0 mm 0.00 in0.0 mm
03:50 PM 24.6°F-4.1°C -170.3°F-112.4°C - 2.0 mph N3.2 kmh N 6.2 mph10.0 kmh 29.47 in998.0 mb 0.00 in0.0 mm 0.00 in0.0 mm 0.00 in0.0 mm
04:05 PM 24.4°F-4.2°C -170.4°F-112.4°C - 1.4 mph N2.3 kmh N 4.0 mph6.4 kmh 29.45 in997.3 mb 0.00 in0.0 mm 0.00 in0.0 mm 0.00 in0.0 mm
04:20 PM 24.4°F-4.2°C -170.4°F-112.4°C - 2.0 mph N3.2 kmh N 4.8 mph7.7 kmh 29.45 in997.3 mb 0.00 in0.0 mm 0.00 in0.0 mm 0.00 in0.0 mm
04:35 PM 24.4°F-4.2°C -170.4°F-112.4°C - 2.0 mph N3.2 kmh N 6.8 mph10.9 kmh 29.44 in997.0 mb 0.00 in0.0 mm 0.00 in0.0 mm 0.00 in0.0 mm
04:50 PM 24.1°F-4.4°C -170.4°F-112.4°C - 2.8 mph N4.5 kmh N 4.8 mph7.7 kmh 29.43 in996.6 mb 0.00 in0.0 mm 0.00 in0.0 mm 0.00 in0.0 mm
05:05 PM 23.9°F-4.5°C -170.4°F-112.4°C - 2.0 mph N3.2 kmh N 4.0 mph6.4 kmh 29.42 in996.3 mb 0.00 in0.0 mm 0.00 in0.0 mm 0.00 in0.0 mm
05:20 PM 23.5°F-4.7°C -170.4°F-112.4°C - 4.0 mph N6.4 kmh N 10.2 mph16.4 kmh 29.41 in995.9 mb 0.00 in0.0 mm 0.00 in0.0 mm 0.00 in0.0 mm
05:35 PM 23.2°F-4.9°C -170.5°F-112.5°C - 2.8 mph N4.5 kmh N 4.8 mph7.7 kmh 29.41 in995.9 mb 0.00 in0.0 mm 0.00 in0.0 mm 0.00 in0.0 mm
05:50 PM 22.8°F-5.1°C -170.5°F-112.5°C - 1.4 mph N2.3 kmh N 5.4 mph8.7 kmh 29.40 in995.6 mb 0.00 in0.0 mm 0.00 in0.0 mm 0.00 in0.0 mm
06:05 PM 22.3°F-5.4°C -170.6°F-112.6°C - 2.0 mph N3.2 kmh N 4.8 mph7.7 kmh 29.39 in995.3 mb 0.00 in0.0 mm 0.00 in0.0 mm 0.00 in0.0 mm
06:20 PM 21.9°F-5.6°C -170.6°F-112.6°C - 2.0 mph N3.2 kmh N 5.4 mph8.7 kmh 29.39 in995.3 mb 0.00 in0.0 mm 0.00 in0.0 mm 0.00 in0.0 mm
06:35 PM 21.7°F-5.7°C -170.6°F-112.6°C - 2.8 mph N4.5 kmh N 6.8 mph10.9 kmh 29.37 in994.6 mb 0.00 in0.0 mm 0.00 in0.0 mm 0.00 in0.0 mm
06:50 PM 21.9°F-5.6°C -170.6°F-112.6°C - 3.4 mph N5.5 kmh N 6.2 mph10.0 kmh 29.37 in994.6 mb 0.00 in0.0 mm 0.00 in0.0 mm 0.00 in0.0 mm
07:05 PM 21.9°F-5.6°C -170.6°F-112.6°C - 2.8 mph N4.5 kmh N 8.2 mph13.2 kmh 29.35 in993.9 mb 0.00 in0.0 mm 0.00 in0.0 mm 0.00 in0.0 mm
07:20 PM 21.9°F-5.6°C -170.6°F-112.6°C - 1.4 mph N2.3 kmh N 4.0 mph6.4 kmh 29.35 in993.9 mb 0.00 in0.0 mm 0.00 in0.0 mm 0.00 in0.0 mm
07:35 PM 21.6°F-5.8°C -170.6°F-112.6°C - 3.4 mph N5.5 kmh N 8.8 mph14.2 kmh 29.33 in993.2 mb 0.00 in0.0 mm 0.00 in0.0 mm 0.00 in0.0 mm
07:50 PM 21.0°F-6.1°C -170.7°F-112.6°C - 2.0 mph N3.2 kmh N 7.4 mph11.9 kmh 29.32 in992.9 mb 0.00 in0.0 mm 0.00 in0.0 mm 0.00 in0.0 mm
08:05 PM 20.8°F-6.2°C -170.7°F-112.6°C - 2.0 mph N3.2 kmh N 4.8 mph7.7 kmh 29.31 in992.6 mb 0.00 in0.0 mm 0.00 in0.0 mm 0.00 in0.0 mm
08:20 PM 20.7°F-6.3°C -170.7°F-112.6°C - 1.4 mph N2.3 kmh N 4.0 mph6.4 kmh 29.30 in992.2 mb 0.00 in0.0 mm 0.00 in0.0 mm 0.00 in0.0 mm
08:35 PM 20.3°F-6.5°C -170.8°F-112.7°C - 2.0 mph N3.2 kmh N 5.4 mph8.7 kmh 29.29 in991.9 mb 0.00 in0.0 mm 0.00 in0.0 mm 0.00 in0.0 mm
08:50 PM 20.3°F-6.5°C -170.8°F-112.7°C - 2.0 mph N3.2 kmh N 5.4 mph8.7 kmh 29.28 in991.5 mb 0.00 in0.0 mm 0.00 in0.0 mm 0.00 in0.0 mm
09:05 PM 19.8°F-6.8°C -170.8°F-112.7°C - 2.0 mph N3.2 kmh N 7.4 mph11.9 kmh 29.26 in990.9 mb 0.00 in0.0 mm 0.00 in0.0 mm 0.00 in0.0 mm
09:20 PM 19.6°F-6.9°C -170.8°F-112.7°C - 2.0 mph N3.2 kmh N 6.8 mph10.9 kmh 29.26 in990.9 mb 0.00 in0.0 mm 0.00 in0.0 mm 0.00 in0.0 mm
09:35 PM 19.4°F-7.0°C -170.9°F-112.7°C - 2.0 mph N3.2 kmh N 4.0 mph6.4 kmh 29.24 in990.2 mb 0.00 in0.0 mm 0.00 in0.0 mm 0.00 in0.0 mm
09:50 PM 19.2°F-7.1°C -170.9°F-112.7°C - 2.8 mph N4.5 kmh N 5.4 mph8.7 kmh 29.24 in990.2 mb 0.00 in0.0 mm 0.00 in0.0 mm 0.00 in0.0 mm
10:05 PM 19.0°F-7.2°C -170.9°F-112.7°C - 2.0 mph N3.2 kmh N 6.2 mph10.0 kmh 29.23 in989.8 mb 0.00 in0.0 mm 0.00 in0.0 mm 0.00 in0.0 mm
10:20 PM 19.0°F-7.2°C -170.9°F-112.7°C - 2.0 mph N3.2 kmh N 6.8 mph10.9 kmh 29.23 in989.8 mb 0.00 in0.0 mm 0.00 in0.0 mm 0.00 in0.0 mm
10:35 PM 19.0°F-7.2°C -170.9°F-112.7°C - 2.0 mph N3.2 kmh N 8.2 mph13.2 kmh 29.22 in989.5 mb 0.00 in0.0 mm 0.00 in0.0 mm 0.00 in0.0 mm
10:50 PM 18.9°F-7.3°C -170.9°F-112.7°C - 1.4 mph N2.3 kmh N 6.8 mph10.9 kmh 29.20 in988.8 mb 0.00 in0.0 mm 0.00 in0.0 mm 0.00 in0.0 mm
11:05 PM 18.9°F-7.3°C -170.9°F-112.7°C - 2.8 mph N4.5 kmh N 6.2 mph10.0 kmh 29.19 in988.5 mb 0.00 in0.0 mm 0.00 in0.0 mm 0.00 in0.0 mm
11:20 PM 18.9°F-7.3°C -170.9°F-112.7°C - 1.4 mph N2.3 kmh N 6.8 mph10.9 kmh 29.19 in988.5 mb 0.00 in0.0 mm 0.00 in0.0 mm 0.00 in0.0 mm
11:35 PM 19.2°F-7.1°C -170.9°F-112.7°C - 1.4 mph N2.3 kmh N 6.8 mph10.9 kmh 29.18 in988.1 mb 0.00 in0.0 mm 0.00 in0.0 mm 0.00 in0.0 mm
11:50 PM 19.6°F-6.9°C -170.8°F-112.7°C - 2.8 mph N4.5 kmh N 4.8 mph7.7 kmh 29.17 in987.8 mb 0.00 in0.0 mm 0.00 in0.0 mm 0.00 in0.0 mm